KBEC/BEC METAR and TAF weather

Enter ICAO airport designator
Station Type Date Time Source
KBEC METAR 2020/04/06 08:55 UTC NOAA

KBEC 060855Z AUTO 20020G28KT 10SM OVC010 14/12 A2992 RMK AO2 T01350115


Station Type Date Time Source
KBEC Decoded METAR 2020/04/06 08:55 UTC NOAA

Station name not available
Apr 06, 2020 - 04:55 AM EDT / 2020.04.06 0855 UTC
Wind: from the SSW (200 degrees) at 23 MPH (20 KT) gusting to 32 MPH (28 KT):0
Visibility: 10 mile(s):0
Sky conditions: overcast
Temperature: 56.3 F (13.5 C)
Dew Point: 52.7 F (11.5 C)
Relative Humidity: 87%
Pressure (altimeter): 29.92 in. Hg (1013 hPa)
ob: KBEC 060855Z AUTO 20020G28KT 10SM OVC010 14/12 A2992 RMK AO2 T01350115
cycle: 9

Station Type Date Time Source
KBEC TAF UTC NOAA

Error!

Example: see airport list